sensor_id;sensor_type;location;lat;lon;timestamp;temperature;humidity
48589;DHT22;34369;51.174;6.738;2022-09-03T00:01:15;17.70;41.80
48589;DHT22;34369;51.174;6.738;2022-09-03T00:03:51;17.70;41.70
48589;DHT22;34369;51.174;6.738;2022-09-03T00:06:29;17.70;41.80
48589;DHT22;34369;51.174;6.738;2022-09-03T00:09:04;17.80;41.80
48589;DHT22;34369;51.174;6.738;2022-09-03T00:11:51;17.80;41.80
48589;DHT22;34369;51.174;6.738;2022-09-03T00:14:31;17.80;41.90
48589;DHT22;34369;51.174;6.738;2022-09-03T00:17:08;17.80;41.90
48589;DHT22;34369;51.174;6.738;2022-09-03T00:19:43;17.90;41.90
48589;DHT22;34369;51.174;6.738;2022-09-03T00:22:20;17.80;41.90
48589;DHT22;34369;51.174;6.738;2022-09-03T00:24:54;17.90;41.90
48589;DHT22;34369;51.174;6.738;2022-09-03T00:27:31;17.90;41.90
48589;DHT22;34369;51.174;6.738;2022-09-03T00:30:05;17.90;42.00
48589;DHT22;34369;51.174;6.738;2022-09-03T00:32:41;17.90;41.90
48589;DHT22;34369;51.174;6.738;2022-09-03T00:35:18;17.90;41.90
48589;DHT22;34369;51.174;6.738;2022-09-03T00:37:55;17.90;41.90
48589;DHT22;34369;51.174;6.738;2022-09-03T00:40:34;17.90;42.00
48589;DHT22;34369;51.174;6.738;2022-09-03T00:43:14;17.90;41.90
48589;DHT22;34369;51.174;6.738;2022-09-03T00:45:54;17.90;42.00
48589;DHT22;34369;51.174;6.738;2022-09-03T00:48:29;17.90;42.10
48589;DHT22;34369;51.174;6.738;2022-09-03T00:51:08;17.90;42.10
48589;DHT22;34369;51.174;6.738;2022-09-03T00:53:47;17.90;42.10
48589;DHT22;34369;51.174;6.738;2022-09-03T00:56:26;17.80;42.00
48589;DHT22;34369;51.174;6.738;2022-09-03T00:59:06;17.80;42.00
48589;DHT22;34369;51.174;6.738;2022-09-03T01:01:49;17.90;42.10
48589;DHT22;34369;51.174;6.738;2022-09-03T01:04:33;17.80;42.10
48589;DHT22;34369;51.174;6.738;2022-09-03T01:07:12;17.80;42.40
48589;DHT22;34369;51.174;6.738;2022-09-03T01:09:52;17.80;42.30
48589;DHT22;34369;51.174;6.738;2022-09-03T01:12:30;17.80;42.30
48589;DHT22;34369;51.174;6.738;2022-09-03T01:15:08;17.80;42.40
48589;DHT22;34369;51.174;6.738;2022-09-03T01:17:48;17.80;42.30
48589;DHT22;34369;51.174;6.738;2022-09-03T01:20:28;17.70;42.30
48589;DHT22;34369;51.174;6.738;2022-09-03T01:23:12;17.80;42.40
48589;DHT22;34369;51.174;6.738;2022-09-03T01:25:56;17.70;42.40
48589;DHT22;34369;51.174;6.738;2022-09-03T01:28:42;17.70;42.30
48589;DHT22;34369;51.174;6.738;2022-09-03T01:31:24;17.70;42.40
48589;DHT22;34369;51.174;6.738;2022-09-03T01:34:07;17.70;42.40
48589;DHT22;34369;51.174;6.738;2022-09-03T01:36:46;17.70;42.50
48589;DHT22;34369;51.174;6.738;2022-09-03T01:39:25;17.70;42.50
48589;DHT22;34369;51.174;6.738;2022-09-03T01:42:06;17.70;42.50
48589;DHT22;34369;51.174;6.738;2022-09-03T01:50:49;17.70;43.10
48589;DHT22;34369;51.174;6.738;2022-09-03T01:53:33;17.70;42.70
48589;DHT22;34369;51.174;6.738;2022-09-03T01:56:18;17.70;42.60
48589;DHT22;34369;51.174;6.738;2022-09-03T01:58:57;17.70;42.70
48589;DHT22;34369;51.174;6.738;2022-09-03T02:01:33;17.60;42.60
48589;DHT22;34369;51.174;6.738;2022-09-03T02:04:14;17.70;42.60
48589;DHT22;34369;51.174;6.738;2022-09-03T02:06:49;17.70;42.70
48589;DHT22;34369;51.174;6.738;2022-09-03T02:09:22;17.70;42.70
48589;DHT22;34369;51.174;6.738;2022-09-03T02:11:55;17.70;42.80
48589;DHT22;34369;51.174;6.738;2022-09-03T02:14:29;17.70;42.90
48589;DHT22;34369;51.174;6.738;2022-09-03T02:17:02;17.60;42.90
48589;DHT22;34369;51.174;6.738;2022-09-03T02:19:36;17.60;42.90
48589;DHT22;34369;51.174;6.738;2022-09-03T02:22:09;17.70;43.00
48589;DHT22;34369;51.174;6.738;2022-09-03T02:24:41;17.60;42.90
48589;DHT22;34369;51.174;6.738;2022-09-03T02:27:13;17.60;43.00
48589;DHT22;34369;51.174;6.738;2022-09-03T02:29:45;17.60;43.00
48589;DHT22;34369;51.174;6.738;2022-09-03T02:32:17;17.60;43.00
48589;DHT22;34369;51.174;6.738;2022-09-03T02:34:51;17.60;42.90
48589;DHT22;34369;51.174;6.738;2022-09-03T02:37:23;17.50;42.90
48589;DHT22;34369;51.174;6.738;2022-09-03T02:39:55;17.50;43.00
48589;DHT22;34369;51.174;6.738;2022-09-03T02:42:28;17.50;43.10
48589;DHT22;34369;51.174;6.738;2022-09-03T02:45:02;17.50;43.00
48589;DHT22;34369;51.174;6.738;2022-09-03T02:47:42;17.40;43.00
48589;DHT22;34369;51.174;6.738;2022-09-03T02:50:17;17.40;43.00
48589;DHT22;34369;51.174;6.738;2022-09-03T02:52:52;17.40;43.00
48589;DHT22;34369;51.174;6.738;2022-09-03T02:55:25;17.40;43.10
48589;DHT22;34369;51.174;6.738;2022-09-03T02:57:57;17.40;43.20
48589;DHT22;34369;51.174;6.738;2022-09-03T03:00:29;17.30;43.20
48589;DHT22;34369;51.174;6.738;2022-09-03T03:03:02;17.30;43.20
48589;DHT22;34369;51.174;6.738;2022-09-03T03:05:39;17.20;43.30
48589;DHT22;34369;51.174;6.738;2022-09-03T03:08:14;17.20;43.30
48589;DHT22;34369;51.174;6.738;2022-09-03T03:10:47;17.20;43.40
48589;DHT22;34369;51.174;6.738;2022-09-03T03:13:21;17.20;43.40
48589;DHT22;34369;51.174;6.738;2022-09-03T03:15:54;17.20;43.40
48589;DHT22;34369;51.174;6.738;2022-09-03T03:18:27;17.10;43.40
48589;DHT22;34369;51.174;6.738;2022-09-03T03:21:04;17.10;43.50
48589;DHT22;34369;51.174;6.738;2022-09-03T03:23:36;17.00;43.40
48589;DHT22;34369;51.174;6.738;2022-09-03T03:26:10;17.00;43.50
48589;DHT22;34369;51.174;6.738;2022-09-03T03:28:44;16.90;43.50
48589;DHT22;34369;51.174;6.738;2022-09-03T03:31:18;17.00;43.60
48589;DHT22;34369;51.174;6.738;2022-09-03T03:33:52;16.90;43.60
48589;DHT22;34369;51.174;6.738;2022-09-03T03:36:27;16.90;43.70
48589;DHT22;34369;51.174;6.738;2022-09-03T03:39:00;16.90;43.70
48589;DHT22;34369;51.174;6.738;2022-09-03T03:41:33;16.80;43.70
48589;DHT22;34369;51.174;6.738;2022-09-03T03:44:06;16.80;43.80
48589;DHT22;34369;51.174;6.738;2022-09-03T03:46:39;16.80;43.80
48589;DHT22;34369;51.174;6.738;2022-09-03T03:49:11;16.80;44.10
48589;DHT22;34369;51.174;6.738;2022-09-03T03:51:45;16.70;43.80
48589;DHT22;34369;51.174;6.738;2022-09-03T03:54:18;16.70;44.50
48589;DHT22;34369;51.174;6.738;2022-09-03T03:56:53;16.70;44.00
48589;DHT22;34369;51.174;6.738;2022-09-03T03:59:25;16.60;43.90
48589;DHT22;34369;51.174;6.738;2022-09-03T04:01:57;16.60;44.00
48589;DHT22;34369;51.174;6.738;2022-09-03T04:04:29;16.60;44.10
48589;DHT22;34369;51.174;6.738;2022-09-03T04:07:03;16.50;44.00
48589;DHT22;34369;51.174;6.738;2022-09-03T04:09:35;16.50;44.10
48589;DHT22;34369;51.174;6.738;2022-09-03T04:12:07;16.50;44.20
48589;DHT22;34369;51.174;6.738;2022-09-03T04:14:40;16.40;44.30
48589;DHT22;34369;51.174;6.738;2022-09-03T04:17:12;16.40;44.30
48589;DHT22;34369;51.174;6.738;2022-09-03T04:19:44;16.40;44.40
48589;DHT22;34369;51.174;6.738;2022-09-03T04:22:19;16.30;44.40
48589;DHT22;34369;51.174;6.738;2022-09-03T04:24:51;16.30;44.50
48589;DHT22;34369;51.174;6.738;2022-09-03T04:27:30;16.30;44.50
48589;DHT22;34369;51.174;6.738;2022-09-03T04:30:08;16.30;44.60
48589;DHT22;34369;51.174;6.738;2022-09-03T04:32:40;16.20;44.60
48589;DHT22;34369;51.174;6.738;2022-09-03T04:35:25;16.20;44.70
48589;DHT22;34369;51.174;6.738;2022-09-03T04:38:00;16.20;44.70
48589;DHT22;34369;51.174;6.738;2022-09-03T04:40:33;16.10;44.80
48589;DHT22;34369;51.174;6.738;2022-09-03T04:43:05;16.20;44.80
48589;DHT22;34369;51.174;6.738;2022-09-03T04:45:37;16.10;44.80
48589;DHT22;34369;51.174;6.738;2022-09-03T04:48:10;16.10;45.00
48589;DHT22;34369;51.174;6.738;2022-09-03T04:50:42;16.10;45.00
48589;DHT22;34369;51.174;6.738;2022-09-03T04:53:16;16.10;45.10
48589;DHT22;34369;51.174;6.738;2022-09-03T04:55:48;16.10;45.10
48589;DHT22;34369;51.174;6.738;2022-09-03T04:58:20;16.10;45.10
48589;DHT22;34369;51.174;6.738;2022-09-03T05:00:52;16.20;45.20
48589;DHT22;34369;51.174;6.738;2022-09-03T05:03:25;16.10;45.20
48589;DHT22;34369;51.174;6.738;2022-09-03T05:06:00;16.10;45.20
48589;DHT22;34369;51.174;6.738;2022-09-03T05:08:34;16.20;45.30
48589;DHT22;34369;51.174;6.738;2022-09-03T05:11:06;16.10;45.30
48589;DHT22;34369;51.174;6.738;2022-09-03T05:13:38;16.20;45.40
48589;DHT22;34369;51.174;6.738;2022-09-03T05:16:11;16.10;45.40
48589;DHT22;34369;51.174;6.738;2022-09-03T05:18:44;16.10;45.40
48589;DHT22;34369;51.174;6.738;2022-09-03T05:21:17;16.10;45.50
48589;DHT22;34369;51.174;6.738;2022-09-03T05:23:51;16.10;45.50
48589;DHT22;34369;51.174;6.738;2022-09-03T05:26:24;16.20;45.60
48589;DHT22;34369;51.174;6.738;2022-09-03T05:28:59;16.20;45.60
48589;DHT22;34369;51.174;6.738;2022-09-03T05:31:32;16.10;45.70
48589;DHT22;34369;51.174;6.738;2022-09-03T05:34:06;16.20;45.80
48589;DHT22;34369;51.174;6.738;2022-09-03T05:36:39;16.20;45.70
48589;DHT22;34369;51.174;6.738;2022-09-03T05:39:13;16.20;45.70
48589;DHT22;34369;51.174;6.738;2022-09-03T05:41:45;16.20;45.70
48589;DHT22;34369;51.174;6.738;2022-09-03T05:44:20;16.20;45.80
48589;DHT22;34369;51.174;6.738;2022-09-03T05:46:52;16.20;45.70
48589;DHT22;34369;51.174;6.738;2022-09-03T05:49:24;16.30;46.00
48589;DHT22;34369;51.174;6.738;2022-09-03T05:51:56;16.30;45.90
48589;DHT22;34369;51.174;6.738;2022-09-03T05:54:30;16.40;45.90
48589;DHT22;34369;51.174;6.738;2022-09-03T05:57:03;16.40;46.60
48589;DHT22;34369;51.174;6.738;2022-09-03T05:59:35;16.50;46.00
48589;DHT22;34369;51.174;6.738;2022-09-03T06:02:07;16.50;46.00
48589;DHT22;34369;51.174;6.738;2022-09-03T06:04:39;16.50;46.10
48589;DHT22;34369;51.174;6.738;2022-09-03T06:07:11;16.50;46.00
48589;DHT22;34369;51.174;6.738;2022-09-03T06:09:47;16.60;46.30
48589;DHT22;34369;51.174;6.738;2022-09-03T06:12:19;16.60;46.40
48589;DHT22;34369;51.174;6.738;2022-09-03T06:14:51;16.70;46.60
48589;DHT22;34369;51.174;6.738;2022-09-03T06:17:24;16.70;46.10
48589;DHT22;34369;51.174;6.738;2022-09-03T06:19:56;16.80;46.50
48589;DHT22;34369;51.174;6.738;2022-09-03T06:22:29;16.80;46.70
48589;DHT22;34369;51.174;6.738;2022-09-03T06:25:02;17.00;46.50
48589;DHT22;34369;51.174;6.738;2022-09-03T06:27:35;17.00;46.50
48589;DHT22;34369;51.174;6.738;2022-09-03T06:30:08;17.00;46.40
48589;DHT22;34369;51.174;6.738;2022-09-03T06:32:42;17.10;46.30
48589;DHT22;34369;51.174;6.738;2022-09-03T06:35:14;17.30;46.40
48589;DHT22;34369;51.174;6.738;2022-09-03T06:37:47;17.30;46.40
48589;DHT22;34369;51.174;6.738;2022-09-03T06:40:20;17.40;46.30
48589;DHT22;34369;51.174;6.738;2022-09-03T06:42:55;17.50;46.40
48589;DHT22;34369;51.174;6.738;2022-09-03T06:45:32;17.50;46.40
48589;DHT22;34369;51.174;6.738;2022-09-03T06:48:05;17.70;46.30
48589;DHT22;34369;51.174;6.738;2022-09-03T06:50:38;17.80;46.60
48589;DHT22;34369;51.174;6.738;2022-09-03T06:53:12;17.90;46.60
48589;DHT22;34369;51.174;6.738;2022-09-03T06:55:52;17.90;46.80
48589;DHT22;34369;51.174;6.738;2022-09-03T06:58:27;18.00;46.40
48589;DHT22;34369;51.174;6.738;2022-09-03T07:01:01;18.10;46.30
48589;DHT22;34369;51.174;6.738;2022-09-03T07:03:33;18.20;46.10
48589;DHT22;34369;51.174;6.738;2022-09-03T07:06:07;18.30;46.20
48589;DHT22;34369;51.174;6.738;2022-09-03T07:08:40;18.40;46.10
48589;DHT22;34369;51.174;6.738;2022-09-03T07:11:15;18.50;46.10
48589;DHT22;34369;51.174;6.738;2022-09-03T07:13:50;18.60;46.00
48589;DHT22;34369;51.174;6.738;2022-09-03T07:16:23;18.70;46.10
48589;DHT22;34369;51.174;6.738;2022-09-03T07:18:56;18.80;46.20
48589;DHT22;34369;51.174;6.738;2022-09-03T07:21:31;18.90;45.90
48589;DHT22;34369;51.174;6.738;2022-09-03T07:24:06;19.00;45.80
48589;DHT22;34369;51.174;6.738;2022-09-03T07:26:40;19.00;45.70
48589;DHT22;34369;51.174;6.738;2022-09-03T07:29:14;19.10;45.50
48589;DHT22;34369;51.174;6.738;2022-09-03T07:31:49;19.20;45.60
48589;DHT22;34369;51.174;6.738;2022-09-03T07:34:22;19.20;45.50
48589;DHT22;34369;51.174;6.738;2022-09-03T07:36:55;19.30;45.30
48589;DHT22;34369;51.174;6.738;2022-09-03T07:39:30;19.30;45.20
48589;DHT22;34369;51.174;6.738;2022-09-03T07:42:04;19.40;45.20
48589;DHT22;34369;51.174;6.738;2022-09-03T07:44:40;19.50;45.10
48589;DHT22;34369;51.174;6.738;2022-09-03T07:47:12;19.50;45.00
48589;DHT22;34369;51.174;6.738;2022-09-03T07:49:44;19.60;45.20
48589;DHT22;34369;51.174;6.738;2022-09-03T07:52:17;19.70;45.20
48589;DHT22;34369;51.174;6.738;2022-09-03T07:54:49;19.80;45.20
48589;DHT22;34369;51.174;6.738;2022-09-03T07:57:23;19.90;45.10
48589;DHT22;34369;51.174;6.738;2022-09-03T07:59:55;20.00;45.10
48589;DHT22;34369;51.174;6.738;2022-09-03T08:02:28;20.10;45.10
48589;DHT22;34369;51.174;6.738;2022-09-03T08:05:01;20.20;44.90
48589;DHT22;34369;51.174;6.738;2022-09-03T08:07:33;20.30;44.90
48589;DHT22;34369;51.174;6.738;2022-09-03T08:10:06;20.40;44.70
48589;DHT22;34369;51.174;6.738;2022-09-03T08:12:40;20.50;44.70
48589;DHT22;34369;51.174;6.738;2022-09-03T08:15:12;20.60;44.70
48589;DHT22;34369;51.174;6.738;2022-09-03T08:17:45;20.70;44.70
48589;DHT22;34369;51.174;6.738;2022-09-03T08:20:17;20.90;44.80
48589;DHT22;34369;51.174;6.738;2022-09-03T08:22:49;21.20;44.80
48589;DHT22;34369;51.174;6.738;2022-09-03T08:25:22;21.40;44.60
48589;DHT22;34369;51.174;6.738;2022-09-03T08:30:47;21.80;44.20
48589;DHT22;34369;51.174;6.738;2022-09-03T08:33:19;21.90;44.00
48589;DHT22;34369;51.174;6.738;2022-09-03T08:36:06;22.00;43.70
48589;DHT22;34369;51.174;6.738;2022-09-03T08:38:42;22.10;43.40
48589;DHT22;34369;51.174;6.738;2022-09-03T08:41:16;22.20;43.50
48589;DHT22;34369;51.174;6.738;2022-09-03T08:43:55;22.30;43.30
48589;DHT22;34369;51.174;6.738;2022-09-03T08:46:41;22.30;43.30
48589;DHT22;34369;51.174;6.738;2022-09-03T08:49:19;22.30;43.30
48589;DHT22;34369;51.174;6.738;2022-09-03T08:51:55;22.40;43.20
48589;DHT22;34369;51.174;6.738;2022-09-03T08:54:28;22.60;43.40
48589;DHT22;34369;51.174;6.738;2022-09-03T08:57:01;22.60;43.30
48589;DHT22;34369;51.174;6.738;2022-09-03T08:59:35;22.70;43.30
48589;DHT22;34369;51.174;6.738;2022-09-03T09:02:13;22.80;43.10
48589;DHT22;34369;51.174;6.738;2022-09-03T09:04:53;22.80;43.30
48589;DHT22;34369;51.174;6.738;2022-09-03T09:07:31;23.20;43.90
48589;DHT22;34369;51.174;6.738;2022-09-03T09:10:09;23.50;44.00
48589;DHT22;34369;51.174;6.738;2022-09-03T09:12:46;24.10;44.00
48589;DHT22;34369;51.174;6.738;2022-09-03T09:15:37;24.60;43.90
48589;DHT22;34369;51.174;6.738;2022-09-03T09:18:16;25.20;43.90
48589;DHT22;34369;51.174;6.738;2022-09-03T09:20:53;25.70;43.60
48589;DHT22;34369;51.174;6.738;2022-09-03T09:23:29;26.20;43.60
48589;DHT22;34369;51.174;6.738;2022-09-03T09:26:03;26.60;42.30
48589;DHT22;34369;51.174;6.738;2022-09-03T09:28:38;26.90;42.40
48589;DHT22;34369;51.174;6.738;2022-09-03T09:31:13;27.10;41.70
48589;DHT22;34369;51.174;6.738;2022-09-03T09:33:48;27.40;42.00
48589;DHT22;34369;51.174;6.738;2022-09-03T09:36:22;27.60;41.80
48589;DHT22;34369;51.174;6.738;2022-09-03T09:38:55;27.70;41.50
48589;DHT22;34369;51.174;6.738;2022-09-03T09:41:27;27.80;40.50
48589;DHT22;34369;51.174;6.738;2022-09-03T09:44:00;27.70;40.80
48589;DHT22;34369;51.174;6.738;2022-09-03T09:46:36;27.70;40.20
48589;DHT22;34369;51.174;6.738;2022-09-03T09:49:17;27.60;40.20
48589;DHT22;34369;51.174;6.738;2022-09-03T09:52:00;27.30;39.60
48589;DHT22;34369;51.174;6.738;2022-09-03T09:54:33;27.10;40.00
48589;DHT22;34369;51.174;6.738;2022-09-03T09:57:07;27.00;40.20
48589;DHT22;34369;51.174;6.738;2022-09-03T09:59:47;26.80;39.80
48589;DHT22;34369;51.174;6.738;2022-09-03T10:02:22;26.60;40.10
48589;DHT22;34369;51.174;6.738;2022-09-03T10:04:58;26.40;40.20
48589;DHT22;34369;51.174;6.738;2022-09-03T10:07:32;26.20;40.10
48589;DHT22;34369;51.174;6.738;2022-09-03T10:10:06;26.00;40.10
48589;DHT22;34369;51.174;6.738;2022-09-03T10:12:45;25.80;40.20
48589;DHT22;34369;51.174;6.738;2022-09-03T10:15:22;25.70;40.60
48589;DHT22;34369;51.174;6.738;2022-09-03T10:18:01;25.50;40.60
48589;DHT22;34369;51.174;6.738;2022-09-03T10:20:38;25.40;40.70
48589;DHT22;34369;51.174;6.738;2022-09-03T10:23:14;25.30;41.00
48589;DHT22;34369;51.174;6.738;2022-09-03T10:25:52;25.10;40.90
48589;DHT22;34369;51.174;6.738;2022-09-03T10:28:34;25.00;41.10
48589;DHT22;34369;51.174;6.738;2022-09-03T10:31:12;24.90;41.20
48589;DHT22;34369;51.174;6.738;2022-09-03T10:33:55;24.80;41.50
48589;DHT22;34369;51.174;6.738;2022-09-03T10:36:33;24.70;41.70
48589;DHT22;34369;51.174;6.738;2022-09-03T10:39:10;24.60;41.90
48589;DHT22;34369;51.174;6.738;2022-09-03T10:41:48;24.60;42.00
48589;DHT22;34369;51.174;6.738;2022-09-03T10:44:36;24.60;42.40
48589;DHT22;34369;51.174;6.738;2022-09-03T10:50:13;24.60;42.40
48589;DHT22;34369;51.174;6.738;2022-09-03T10:52:54;24.60;42.40
48589;DHT22;34369;51.174;6.738;2022-09-03T10:55:39;24.60;42.40
48589;DHT22;34369;51.174;6.738;2022-09-03T11:01:25;24.70;42.60
48589;DHT22;34369;51.174;6.738;2022-09-03T11:04:04;24.80;42.70
48589;DHT22;34369;51.174;6.738;2022-09-03T11:06:49;25.00;42.80
48589;DHT22;34369;51.174;6.738;2022-09-03T11:09:22;25.10;42.80
48589;DHT22;34369;51.174;6.738;2022-09-03T11:11:58;25.30;42.60
48589;DHT22;34369;51.174;6.738;2022-09-03T11:14:34;25.50;42.90
48589;DHT22;34369;51.174;6.738;2022-09-03T11:17:10;25.60;42.70
48589;DHT22;34369;51.174;6.738;2022-09-03T11:19:47;25.80;42.70
48589;DHT22;34369;51.174;6.738;2022-09-03T11:22:23;25.90;42.60
48589;DHT22;34369;51.174;6.738;2022-09-03T11:24:57;26.00;42.50
48589;DHT22;34369;51.174;6.738;2022-09-03T11:27:33;26.10;42.40
48589;DHT22;34369;51.174;6.738;2022-09-03T11:30:14;26.20;42.30
48589;DHT22;34369;51.174;6.738;2022-09-03T11:32:54;26.30;42.40
48589;DHT22;34369;51.174;6.738;2022-09-03T11:35:36;26.40;42.60
48589;DHT22;34369;51.174;6.738;2022-09-03T11:38:19;26.60;42.70
48589;DHT22;34369;51.174;6.738;2022-09-03T11:40:57;26.70;42.30
48589;DHT22;34369;51.174;6.738;2022-09-03T11:43:32;26.90;42.30
48589;DHT22;34369;51.174;6.738;2022-09-03T11:46:07;27.00;41.90
48589;DHT22;34369;51.174;6.738;2022-09-03T11:48:42;27.10;42.20
48589;DHT22;34369;51.174;6.738;2022-09-03T11:51:17;27.20;42.10
48589;DHT22;34369;51.174;6.738;2022-09-03T11:53:56;27.40;41.80
48589;DHT22;34369;51.174;6.738;2022-09-03T11:56:29;27.50;41.70
48589;DHT22;34369;51.174;6.738;2022-09-03T11:59:15;27.60;42.10
48589;DHT22;34369;51.174;6.738;2022-09-03T12:01:50;27.70;42.20
48589;DHT22;34369;51.174;6.738;2022-09-03T12:04:24;27.90;42.00
48589;DHT22;34369;51.174;6.738;2022-09-03T12:07:07;28.00;41.90
48589;DHT22;34369;51.174;6.738;2022-09-03T12:12:44;28.20;41.50
48589;DHT22;34369;51.174;6.738;2022-09-03T12:15:37;28.30;41.80
48589;DHT22;34369;51.174;6.738;2022-09-03T12:18:18;28.40;41.70
48589;DHT22;34369;51.174;6.738;2022-09-03T12:21:00;28.40;41.70
48589;DHT22;34369;51.174;6.738;2022-09-03T12:23:34;28.40;41.50
48589;DHT22;34369;51.174;6.738;2022-09-03T12:26:15;28.40;41.60
48589;DHT22;34369;51.174;6.738;2022-09-03T12:28:49;28.30;41.60
48589;DHT22;34369;51.174;6.738;2022-09-03T12:31:24;28.20;42.20
48589;DHT22;34369;51.174;6.738;2022-09-03T12:33:59;28.20;41.50
48589;DHT22;34369;51.174;6.738;2022-09-03T12:36:37;28.20;41.80
48589;DHT22;34369;51.174;6.738;2022-09-03T12:39:11;28.10;41.90
48589;DHT22;34369;51.174;6.738;2022-09-03T12:41:53;28.20;42.10
48589;DHT22;34369;51.174;6.738;2022-09-03T12:44:29;28.30;42.20
48589;DHT22;34369;51.174;6.738;2022-09-03T12:47:03;28.40;42.20
48589;DHT22;34369;51.174;6.738;2022-09-03T12:49:37;28.50;42.30
48589;DHT22;34369;51.174;6.738;2022-09-03T12:52:11;28.60;42.10
48589;DHT22;34369;51.174;6.738;2022-09-03T12:54:49;28.60;42.10
48589;DHT22;34369;51.174;6.738;2022-09-03T12:57:27;28.60;41.80
48589;DHT22;34369;51.174;6.738;2022-09-03T13:00:04;28.70;42.10
48589;DHT22;34369;51.174;6.738;2022-09-03T13:02:39;28.80;42.20
48589;DHT22;34369;51.174;6.738;2022-09-03T13:05:16;28.90;42.50
48589;DHT22;34369;51.174;6.738;2022-09-03T13:07:50;29.10;42.50
48589;DHT22;34369;51.174;6.738;2022-09-03T13:10:25;29.20;42.40
48589;DHT22;34369;51.174;6.738;2022-09-03T13:13:02;29.40;42.50
48589;DHT22;34369;51.174;6.738;2022-09-03T13:15:37;29.60;42.30
48589;DHT22;34369;51.174;6.738;2022-09-03T13:18:18;29.80;42.40
48589;DHT22;34369;51.174;6.738;2022-09-03T13:21:02;29.90;42.40
48589;DHT22;34369;51.174;6.738;2022-09-03T13:26:48;30.30;42.30
48589;DHT22;34369;51.174;6.738;2022-09-03T13:29:37;30.50;42.30
48589;DHT22;34369;51.174;6.738;2022-09-03T13:32:16;30.60;42.20
48589;DHT22;34369;51.174;6.738;2022-09-03T13:34:56;30.70;41.80
48589;DHT22;34369;51.174;6.738;2022-09-03T13:37:34;30.80;41.90
48589;DHT22;34369;51.174;6.738;2022-09-03T13:40:11;30.90;41.10
48589;DHT22;34369;51.174;6.738;2022-09-03T13:42:49;30.90;41.80
48589;DHT22;34369;51.174;6.738;2022-09-03T13:45:30;31.00;41.90
48589;DHT22;34369;51.174;6.738;2022-09-03T13:48:09;31.00;41.30
48589;DHT22;34369;51.174;6.738;2022-09-03T13:51:05;31.00;41.40
48589;DHT22;34369;51.174;6.738;2022-09-03T13:53:43;30.90;40.70
48589;DHT22;34369;51.174;6.738;2022-09-03T13:56:24;30.90;41.10
48589;DHT22;34369;51.174;6.738;2022-09-03T13:59:06;30.90;41.10
48589;DHT22;34369;51.174;6.738;2022-09-03T14:01:59;30.90;40.70
48589;DHT22;34369;51.174;6.738;2022-09-03T14:04:40;30.90;40.80
48589;DHT22;34369;51.174;6.738;2022-09-03T14:07:19;30.90;40.30
48589;DHT22;34369;51.174;6.738;2022-09-03T14:09:57;30.80;40.70
48589;DHT22;34369;51.174;6.738;2022-09-03T14:12:37;30.80;40.40
48589;DHT22;34369;51.174;6.738;2022-09-03T14:15:16;30.70;40.50
48589;DHT22;34369;51.174;6.738;2022-09-03T14:17:55;30.70;40.50
48589;DHT22;34369;51.174;6.738;2022-09-03T14:20:31;30.70;40.50
48589;DHT22;34369;51.174;6.738;2022-09-03T14:23:09;30.60;40.60
48589;DHT22;34369;51.174;6.738;2022-09-03T14:25:56;30.50;40.60
48589;DHT22;34369;51.174;6.738;2022-09-03T14:28:30;30.50;40.70
48589;DHT22;34369;51.174;6.738;2022-09-03T14:31:07;30.40;40.70
48589;DHT22;34369;51.174;6.738;2022-09-03T14:33:48;30.40;40.60
48589;DHT22;34369;51.174;6.738;2022-09-03T14:36:24;30.40;40.40
48589;DHT22;34369;51.174;6.738;2022-09-03T14:39:02;30.30;40.40
48589;DHT22;34369;51.174;6.738;2022-09-03T14:44:53;30.20;40.10
48589;DHT22;34369;51.174;6.738;2022-09-03T14:48:05;30.00;39.90
48589;DHT22;34369;51.174;6.738;2022-09-03T14:50:49;29.80;40.00
48589;DHT22;34369;51.174;6.738;2022-09-03T14:53:44;29.80;40.40
48589;DHT22;34369;51.174;6.738;2022-09-03T14:56:38;29.70;40.60
48589;DHT22;34369;51.174;6.738;2022-09-03T14:59:22;29.60;40.50
48589;DHT22;34369;51.174;6.738;2022-09-03T15:02:07;29.60;40.60
48589;DHT22;34369;51.174;6.738;2022-09-03T15:04:51;29.60;40.60
48589;DHT22;34369;51.174;6.738;2022-09-03T15:07:39;29.60;40.30
48589;DHT22;34369;51.174;6.738;2022-09-03T15:10:15;29.60;40.70
48589;DHT22;34369;51.174;6.738;2022-09-03T15:12:52;29.60;40.40
48589;DHT22;34369;51.174;6.738;2022-09-03T15:15:27;29.70;40.50
48589;DHT22;34369;51.174;6.738;2022-09-03T15:18:03;29.70;40.60
48589;DHT22;34369;51.174;6.738;2022-09-03T15:20:47;29.70;40.70
48589;DHT22;34369;51.174;6.738;2022-09-03T15:23:24;29.80;40.80
48589;DHT22;34369;51.174;6.738;2022-09-03T15:26:16;29.70;40.80
48589;DHT22;34369;51.174;6.738;2022-09-03T15:31:54;29.80;40.20
48589;DHT22;34369;51.174;6.738;2022-09-03T15:34:39;29.80;40.10
48589;DHT22;34369;51.174;6.738;2022-09-03T15:37:19;29.70;39.80
48589;DHT22;34369;51.174;6.738;2022-09-03T15:39:59;29.50;39.80
48589;DHT22;34369;51.174;6.738;2022-09-03T15:42:34;29.40;39.90
48589;DHT22;34369;51.174;6.738;2022-09-03T15:45:14;29.30;40.00
48589;DHT22;34369;51.174;6.738;2022-09-03T15:47:51;29.10;40.10
48589;DHT22;34369;51.174;6.738;2022-09-03T15:50:27;28.90;40.30
48589;DHT22;34369;51.174;6.738;2022-09-03T15:53:04;28.70;40.40
48589;DHT22;34369;51.174;6.738;2022-09-03T15:56:02;28.60;41.30
48589;DHT22;34369;51.174;6.738;2022-09-03T15:58:50;28.50;40.70
48589;DHT22;34369;51.174;6.738;2022-09-03T16:01:32;28.30;40.80
48589;DHT22;34369;51.174;6.738;2022-09-03T16:04:24;28.20;40.80
48589;DHT22;34369;51.174;6.738;2022-09-03T16:07:07;28.10;41.00
48589;DHT22;34369;51.174;6.738;2022-09-03T16:09:48;28.10;41.20
48589;DHT22;34369;51.174;6.738;2022-09-03T16:12:30;28.00;41.20
48589;DHT22;34369;51.174;6.738;2022-09-03T16:15:06;28.00;41.50
48589;DHT22;34369;51.174;6.738;2022-09-03T16:17:43;28.10;41.60
48589;DHT22;34369;51.174;6.738;2022-09-03T16:20:24;28.10;41.80
48589;DHT22;34369;51.174;6.738;2022-09-03T16:23:03;28.10;42.00
48589;DHT22;34369;51.174;6.738;2022-09-03T16:25:43;28.20;41.90
48589;DHT22;34369;51.174;6.738;2022-09-03T16:28:23;28.20;41.80
48589;DHT22;34369;51.174;6.738;2022-09-03T16:31:02;28.30;42.00
48589;DHT22;34369;51.174;6.738;2022-09-03T16:33:44;28.40;42.00
48589;DHT22;34369;51.174;6.738;2022-09-03T16:36:25;28.40;41.90
48589;DHT22;34369;51.174;6.738;2022-09-03T16:39:06;28.50;41.90
48589;DHT22;34369;51.174;6.738;2022-09-03T16:41:45;28.50;41.90
48589;DHT22;34369;51.174;6.738;2022-09-03T16:44:24;28.50;41.80
48589;DHT22;34369;51.174;6.738;2022-09-03T16:46:59;28.50;41.70
48589;DHT22;34369;51.174;6.738;2022-09-03T16:49:39;28.50;41.70
48589;DHT22;34369;51.174;6.738;2022-09-03T16:52:21;28.50;41.60
48589;DHT22;34369;51.174;6.738;2022-09-03T16:55:03;28.50;41.60
48589;DHT22;34369;51.174;6.738;2022-09-03T16:57:47;28.40;41.60